Time;durP1;ratioP1;P1;durP2;ratioP2;P2;SDS_P1;SDS_P2;PMS_P1;PMS_P2;Temp;Humidity;BMP_temperature;BMP_pressure;BME280_temperature;BME280_humidity;BME280_pressure;Samples;Min_cycle;Max_cycle;Signal;HPM_P1;HPM_P2
2023/09/27 00:01:04;;;;;;;13.20;3.43;;;11.80;96.10;;;;;;6134477;23;20453;-62
2023/09/27 00:03:31;;;;;;;6.77;3.63;;;11.80;96.00;;;;;;6134067;23;20442;-61
2023/09/27 00:05:58;;;;;;;2.93;2.57;;;11.90;96.50;;;;;;6132164;23;22133;-61
2023/09/27 00:08:26;;;;;;;4.10;2.67;;;11.90;95.90;;;;;;6132390;23;20446;-62
2023/09/27 00:10:53;;;;;;;3.20;2.47;;;12.00;95.50;;;;;;6132027;23;20752;-63
2023/09/27 00:13:19;;;;;;;3.13;2.33;;;12.00;95.20;;;;;;6136140;23;20877;-61
2023/09/27 00:15:49;;;;;;;3.20;2.70;;;12.10;95.00;;;;;;6129080;23;20442;-62
2023/09/27 00:18:16;;;;;;;3.10;2.50;;;12.00;95.20;;;;;;6132666;23;20442;-63
2023/09/27 00:20:43;;;;;;;3.43;2.63;;;11.90;95.90;;;;;;6131636;23;20480;-63
2023/09/27 00:23:10;;;;;;;4.90;3.30;;;11.80;96.90;;;;;;6134714;23;20446;-61
2023/09/27 00:25:37;;;;;;;3.47;2.73;;;11.80;97.10;;;;;;6135427;23;20939;-62
2023/09/27 00:28:07;;;;;;;16.53;2.80;;;11.80;96.00;;;;;;6132436;23;20446;-63
2023/09/27 00:30:35;;;;;;;2.80;2.07;;;11.80;95.60;;;;;;6095687;23;20510;-63
2023/09/27 00:33:05;;;;;;;3.03;2.47;;;11.80;95.30;;;;;;6133568;23;20917;-62
2023/09/27 00:35:32;;;;;;;12.87;2.93;;;11.80;95.00;;;;;;6127716;23;20517;-63
2023/09/27 00:37:59;;;;;;;21.27;3.00;;;11.80;94.90;;;;;;6133803;23;20517;-62
2023/09/27 00:40:26;;;;;;;3.03;2.67;;;11.80;94.90;;;;;;6128608;23;20450;-61
2023/09/27 00:42:53;;;;;;;3.57;2.60;;;11.80;94.90;;;;;;6128176;23;20442;-62
2023/09/27 00:45:20;;;;;;;5.57;3.10;;;11.70;96.10;;;;;;6090917;23;20564;-61
2023/09/27 00:47:48;;;;;;;2.97;2.67;;;11.60;96.50;;;;;;6123215;23;20446;-62
2023/09/27 00:50:17;;;;;;;5.47;2.90;;;11.60;96.80;;;;;;6135919;23;20442;-61
2023/09/27 00:52:45;;;;;;;5.67;2.90;;;11.60;95.90;;;;;;6128757;23;20443;-62
2023/09/27 00:55:15;;;;;;;5.87;2.87;;;11.60;95.50;;;;;;6135553;23;20446;-61
2023/09/27 00:57:42;;;;;;;16.83;2.87;;;11.60;95.00;;;;;;6135008;23;20453;-67
2023/09/27 01:00:12;;;;;;;10.50;2.93;;;11.60;94.70;;;;;;6115709;23;20474;-66
2023/09/27 01:02:40;;;;;;;13.23;3.50;;;11.50;94.90;;;;;;6117033;23;20470;-63
2023/09/27 01:05:09;;;;;;;9.47;2.83;;;11.30;96.10;;;;;;6137697;23;20787;-61
2023/09/27 01:07:38;;;;;;;5.70;3.90;;;11.30;97.30;;;;;;6136598;23;20461;-62
2023/09/27 01:10:07;;;;;;;10.87;3.73;;;11.00;97.00;;;;;;6138325;23;20473;-60
2023/09/27 01:12:34;;;;;;;8.53;2.40;;;11.00;96.40;;;;;;6138904;23;20442;-61
2023/09/27 01:15:01;;;;;;;13.03;3.13;;;10.90;95.50;;;;;;6127937;23;20450;-61
2023/09/27 01:17:28;;;;;;;3.67;2.97;;;10.90;95.40;;;;;;6131183;23;21085;-62
2023/09/27 01:19:55;;;;;;;3.30;2.77;;;11.00;95.30;;;;;;6138516;23;20453;-62
2023/09/27 01:22:22;;;;;;;5.90;3.27;;;10.90;96.20;;;;;;6137531;23;20442;-62
2023/09/27 01:24:52;;;;;;;3.57;2.07;;;10.90;96.40;;;;;;6138517;23;20521;-62
2023/09/27 01:27:20;;;;;;;2.70;2.10;;;10.90;96.30;;;;;;6133371;23;20485;-60
2023/09/27 01:29:47;;;;;;;15.60;4.00;;;11.00;95.80;;;;;;6107448;23;20439;-60
2023/09/27 01:32:14;;;;;;;2.83;2.00;;;11.00;95.60;;;;;;6120541;23;20943;-61
2023/09/27 01:34:41;;;;;;;24.03;4.00;;;11.10;95.70;;;;;;6136986;23;20446;-62
2023/09/27 01:37:08;;;;;;;12.33;3.03;;;11.10;95.60;;;;;;6135833;23;20877;-62
2023/09/27 01:39:35;;;;;;;3.10;2.63;;;11.10;95.30;;;;;;6137461;23;20466;-62
2023/09/27 01:42:04;;;;;;;3.33;2.60;;;10.90;95.00;;;;;;6137898;23;20442;-61
2023/09/27 01:44:31;;;;;;;4.30;2.90;;;10.70;95.70;;;;;;6139307;23;20447;-62
2023/09/27 01:46:57;;;;;;;12.23;2.63;;;10.50;96.10;;;;;;6135654;23;20438;-62
2023/09/27 01:49:24;;;;;;;3.10;2.40;;;10.50;95.80;;;;;;6138169;23;20446;-62
2023/09/27 01:51:51;;;;;;;4.20;3.03;;;10.50;95.80;;;;;;6098613;23;20771;-61
2023/09/27 01:54:18;;;;;;;7.30;3.17;;;10.60;95.60;;;;;;6140090;23;20442;-61
2023/09/27 01:56:45;;;;;;;3.33;2.90;;;10.50;95.60;;;;;;6138173;23;20443;-61
2023/09/27 01:59:13;;;;;;;2.70;2.03;;;10.40;96.60;;;;;;6137408;23;20442;-62
2023/09/27 02:01:40;;;;;;;4.93;2.77;;;10.20;97.70;;;;;;6138947;23;20446;-63
2023/09/27 02:04:07;;;;;;;3.67;3.17;;;10.10;98.80;;;;;;6137414;23;20442;-61
2023/09/27 02:06:34;;;;;;;11.37;3.10;;;10.10;98.40;;;;;;6135280;23;20536;-62
2023/09/27 02:09:01;;;;;;;3.47;2.93;;;10.20;97.90;;;;;;6135703;23;20444;-66
2023/09/27 02:11:28;;;;;;;15.47;3.63;;;10.20;97.60;;;;;;6137994;23;20443;-66
2023/09/27 02:13:56;;;;;;;4.87;3.27;;;10.30;97.60;;;;;;6135256;23;20438;-67
2023/09/27 02:16:24;;;;;;;4.00;3.03;;;10.40;97.30;;;;;;6126150;23;20787;-65
2023/09/27 02:18:51;;;;;;;4.13;3.03;;;10.50;97.30;;;;;;6127971;23;20793;-66
2023/09/27 02:21:19;;;;;;;15.03;3.53;;;10.60;97.20;;;;;;6130751;23;20449;-66
2023/09/27 02:23:46;;;;;;;2.63;1.70;;;10.70;97.10;;;;;;6136896;23;20452;-66
2023/09/27 02:26:13;;;;;;;4.43;3.40;;;10.70;97.00;;;;;;6137607;23;21166;-66
2023/09/27 02:28:40;;;;;;;4.33;3.20;;;10.80;97.10;;;;;;6136975;23;20453;-67
2023/09/27 02:31:10;;;;;;;10.23;3.03;;;10.80;97.10;;;;;;6134417;23;20442;-66
2023/09/27 02:33:39;;;;;;;6.47;3.30;;;10.90;97.00;;;;;;6138602;23;20465;-66
2023/09/27 02:36:08;;;;;;;4.60;3.00;;;10.90;97.00;;;;;;6140676;23;20875;-67
2023/09/27 02:38:36;;;;;;;10.27;3.50;;;11.00;96.90;;;;;;6139333;23;20442;-66
2023/09/27 02:41:04;;;;;;;7.43;3.20;;;11.10;96.90;;;;;;6099370;23;20442;-65
2023/09/27 02:43:31;;;;;;;23.97;4.50;;;11.10;96.80;;;;;;6114629;23;20435;-66
2023/09/27 02:45:58;;;;;;;12.10;4.10;;;11.10;97.10;;;;;;6109815;23;20457;-66
2023/09/27 02:48:25;;;;;;;3.90;3.20;;;11.10;97.10;;;;;;6121534;23;20460;-66
2023/09/27 02:50:53;;;;;;;10.57;4.03;;;11.00;96.90;;;;;;6139017;23;20478;-65
2023/09/27 02:53:21;;;;;;;12.67;3.33;;;11.10;96.80;;;;;;6136209;23;20529;-66
2023/09/27 02:55:47;;;;;;;14.60;4.03;;;11.10;96.80;;;;;;6139460;23;20445;-66
2023/09/27 02:58:15;;;;;;;12.60;4.20;;;11.00;96.70;;;;;;6135347;23;20456;-66
2023/09/27 03:00:42;;;;;;;12.67;3.60;;;10.90;96.90;;;;;;6140641;23;20446;-66
2023/09/27 03:03:13;;;;;;;5.87;3.77;;;10.80;97.00;;;;;;6138751;23;20533;-66
2023/09/27 03:05:40;;;;;;;5.10;3.60;;;10.60;97.20;;;;;;6100966;23;20935;-66
2023/09/27 03:08:09;;;;;;;4.97;3.20;;;10.50;97.30;;;;;;6137427;23;20429;-66
2023/09/27 03:10:39;;;;;;;7.00;2.90;;;;;;;;;;6139440;23;20461;-66
2023/09/27 03:13:07;;;;;;;29.43;4.20;;;10.60;97.20;;;;;;6106644;23;20443;-66
2023/09/27 03:15:35;;;;;;;6.13;4.00;;;10.60;97.20;;;;;;6129541;23;20438;-65
2023/09/27 03:18:02;;;;;;;12.03;3.47;;;10.70;97.00;;;;;;6133301;23;20446;-63
2023/09/27 03:20:30;;;;;;;10.70;3.30;;;10.70;96.90;;;;;;6138688;23;20450;-61
2023/09/27 03:22:58;;;;;;;5.10;3.23;;;10.60;97.00;;;;;;6139714;23;20450;-61
2023/09/27 03:25:26;;;;;;;7.03;2.63;;;10.50;97.30;;;;;;6138413;23;20837;-62
2023/09/27 03:27:54;;;;;;;9.10;3.50;;;10.50;97.40;;;;;;6138039;23;20488;-63
2023/09/27 03:30:21;;;;;;;3.00;2.77;;;10.40;97.40;;;;;;6140642;23;20434;-62
2023/09/27 03:32:48;;;;;;;4.63;3.70;;;10.50;97.50;;;;;;6097106;23;20447;-61
2023/09/27 03:35:14;;;;;;;11.20;3.30;;;10.50;97.40;;;;;;6129055;23;20462;-63
2023/09/27 03:37:41;;;;;;;5.10;3.57;;;10.50;97.30;;;;;;6139271;23;20441;-61
2023/09/27 03:40:13;;;;;;;3.83;2.67;;;10.50;97.40;;;;;;6137455;23;20446;-62
2023/09/27 03:42:43;;;;;;;3.90;3.50;;;10.30;97.30;;;;;;6136571;23;20446;-61
2023/09/27 03:45:10;;;;;;;3.83;2.60;;;10.30;97.30;;;;;;6137828;23;20446;-62
2023/09/27 03:47:37;;;;;;;26.63;5.90;;;10.20;97.40;;;;;;6138898;23;20446;-61
2023/09/27 03:50:04;;;;;;;6.90;3.87;;;10.20;97.30;;;;;;6140124;23;20454;-61
2023/09/27 03:52:31;;;;;;;4.97;3.77;;;10.10;97.30;;;;;;6140262;23;20468;-62
2023/09/27 03:54:58;;;;;;;18.30;4.03;;;10.10;97.50;;;;;;6138326;23;20446;-63
2023/09/27 03:57:25;;;;;;;5.50;2.93;;;10.10;97.50;;;;;;6139194;23;20465;-63
2023/09/27 03:59:53;;;;;;;4.90;3.40;;;10.20;97.40;;;;;;6134374;23;20946;-64
2023/09/27 04:02:20;;;;;;;12.03;3.50;;;10.00;97.80;;;;;;6139017;23;20442;-62
2023/09/27 04:04:47;;;;;;;8.20;4.00;;;9.90;98.40;;;;;;6113203;23;20438;-62
2023/09/27 04:07:14;;;;;;;3.90;3.10;;;9.90;98.40;;;;;;6102549;23;20518;-62
2023/09/27 04:09:40;;;;;;;13.40;3.53;;;9.80;98.70;;;;;;6129711;23;20457;-63
2023/09/27 04:12:07;;;;;;;4.50;3.37;;;9.70;99.00;;;;;;6138307;23;20442;-62
2023/09/27 04:14:34;;;;;;;5.17;3.20;;;9.70;99.10;;;;;;6139374;23;20845;-63
2023/09/27 04:17:03;;;;;;;7.80;3.80;;;9.70;99.10;;;;;;6139362;23;20813;-61
2023/09/27 04:19:30;;;;;;;4.30;2.70;;;9.70;99.20;;;;;;6138688;23;20525;-62
2023/09/27 04:21:56;;;;;;;17.57;4.57;;;9.50;99.50;;;;;;6139231;23;20450;-63
2023/09/27 04:24:23;;;;;;;5.73;3.80;;;9.50;99.60;;;;;;6139019;23;20565;-62
2023/09/27 04:26:50;;;;;;;10.03;4.27;;;9.40;99.90;;;;;;6119108;23;20447;-62
2023/09/27 04:29:17;;;;;;;6.00;3.80;;;9.40;99.90;;;;;;6118341;23;20446;-62
2023/09/27 04:31:44;;;;;;;4.00;2.27;;;9.30;99.90;;;;;;6115395;23;20412;-61
2023/09/27 04:34:12;;;;;;;4.33;3.10;;;9.40;99.90;;;;;;6102854;23;20446;-61
2023/09/27 04:36:39;;;;;;;15.53;4.77;;;9.60;99.80;;;;;;6095849;23;20526;-61
2023/09/27 04:39:10;;;;;;;11.50;3.20;;;9.80;99.60;;;;;;6137416;23;20450;-61
2023/09/27 04:41:37;;;;;;;6.03;3.40;;;9.80;99.50;;;;;;6139478;23;21057;-62
2023/09/27 04:44:05;;;;;;;9.83;3.30;;;10.00;98.50;;;;;;6122637;23;20482;-62
2023/09/27 04:46:32;;;;;;;13.63;3.20;;;10.10;98.30;;;;;;6114041;23;20477;-60
2023/09/27 04:48:59;;;;;;;5.73;3.50;;;10.10;97.90;;;;;;6137945;23;20453;-61
2023/09/27 04:51:27;;;;;;;6.23;4.27;;;10.00;98.00;;;;;;6134832;23;21073;-61
2023/09/27 04:53:54;;;;;;;7.33;3.87;;;10.00;98.20;;;;;;6132675;23;20453;-62
2023/09/27 04:56:21;;;;;;;32.37;4.97;;;10.10;97.90;;;;;;6137823;23;20953;-61
2023/09/27 04:58:48;;;;;;;4.57;3.57;;;10.10;97.70;;;;;;6126471;23;20448;-62
2023/09/27 05:01:15;;;;;;;15.30;4.90;;;10.20;97.60;;;;;;6135386;23;20522;-62
2023/09/27 05:03:43;;;;;;;17.47;7.10;;;10.20;97.40;;;;;;6108055;23;20446;-61
2023/09/27 05:06:09;;;;;;;5.83;4.33;;;10.20;97.40;;;;;;6136829;23;20528;-62
2023/09/27 05:08:38;;;;;;;5.47;3.60;;;10.20;97.40;;;;;;6138464;23;20446;-63
2023/09/27 05:11:04;;;;;;;3.53;3.23;;;10.20;97.30;;;;;;6137295;23;20918;-59
2023/09/27 05:13:31;;;;;;;13.13;4.33;;;10.20;97.50;;;;;;6130797;23;20509;-60
2023/09/27 05:15:59;;;;;;;3.53;3.00;;;10.10;97.40;;;;;;6136205;23;20530;-61
2023/09/27 05:18:26;;;;;;;3.40;3.07;;;10.30;97.20;;;;;;6138758;23;20899;-61
2023/09/27 05:20:53;;;;;;;4.83;3.43;;;10.30;97.10;;;;;;6132443;23;20450;-61
2023/09/27 05:23:19;;;;;;;6.37;3.20;;;10.20;97.00;;;;;;6138776;23;20457;-61
2023/09/27 05:25:48;;;;;;;6.93;3.20;;;10.20;97.00;;;;;;6138167;23;20446;-61
2023/09/27 05:28:15;;;;;;;4.73;3.80;;;10.20;96.80;;;;;;6136487;23;20453;-61
2023/09/27 05:30:42;;;;;;;22.70;4.17;;;10.10;96.70;;;;;;6122516;23;20460;-61
2023/09/27 05:33:09;;;;;;;6.23;2.83;;;10.00;96.80;;;;;;6113502;23;20453;-60
2023/09/27 05:35:36;;;;;;;7.00;2.67;;;9.90;97.50;;;;;;6136574;23;21032;-61
2023/09/27 05:38:04;;;;;;;6.20;3.00;;;9.90;97.60;;;;;;6084694;23;21002;-61
2023/09/27 05:40:31;;;;;;;4.57;2.70;;;10.00;97.00;;;;;;6139400;23;20443;-61
2023/09/27 05:42:59;;;;;;;10.40;4.30;;;9.90;97.40;;;;;;6137876;23;20447;-61
2023/09/27 05:45:26;;;;;;;4.10;3.10;;;9.80;97.50;;;;;;6136577;23;20819;-61
2023/09/27 05:47:53;;;;;;;10.07;3.20;;;9.80;97.70;;;;;;6135584;23;20533;-62
2023/09/27 05:50:20;;;;;;;5.83;3.80;;;9.80;97.90;;;;;;6139636;23;20450;-61
2023/09/27 05:52:47;;;;;;;14.27;2.90;;;9.90;97.60;;;;;;6136568;23;20902;-60
2023/09/27 05:55:15;;;;;;;4.93;3.00;;;10.00;97.20;;;;;;6136625;23;20527;-60
2023/09/27 05:57:42;;;;;;;3.07;2.77;;;10.00;97.10;;;;;;6110344;23;20503;-61
2023/09/27 06:00:26;;;;;;;4.57;3.60;;;10.10;97.10;;;;;;6126664;23;20672;-60
2023/09/27 06:02:53;;;;;;;6.60;3.17;;;10.00;97.20;;;;;;6127921;23;20773;-62
2023/09/27 06:05:20;;;;;;;30.13;5.40;;;9.90;98.10;;;;;;6139522;23;20437;-61
2023/09/27 06:07:47;;;;;;;4.93;3.67;;;9.80;98.20;;;;;;6138744;23;20442;-61
2023/09/27 06:10:14;;;;;;;5.03;3.47;;;9.70;98.40;;;;;;6137964;23;20434;-61
2023/09/27 06:12:40;;;;;;;8.93;3.77;;;9.50;98.50;;;;;;6139298;23;20442;-61
2023/09/27 06:15:12;;;;;;;6.90;4.03;;;9.50;99.10;;;;;;6078045;23;20451;-61
2023/09/27 06:17:38;;;;;;;4.87;4.40;;;9.50;99.20;;;;;;6066861;23;20525;-60
2023/09/27 06:20:07;;;;;;;12.67;5.43;;;9.40;99.40;;;;;;6094985;23;20995;-60
2023/09/27 06:22:34;;;;;;;7.20;4.50;;;9.40;99.70;;;;;;6136786;23;20966;-61
2023/09/27 06:25:01;;;;;;;4.70;3.77;;;9.40;99.80;;;;;;6138283;23;20998;-61
2023/09/27 06:27:28;;;;;;;9.30;3.93;;;9.50;99.90;;;;;;6137373;23;20450;-61
2023/09/27 06:29:54;;;;;;;4.00;3.10;;;9.50;99.90;;;;;;6095214;23;20455;-61
2023/09/27 06:32:23;;;;;;;9.90;3.13;;;9.50;99.90;;;;;;6137263;23;20439;-62
2023/09/27 06:34:51;;;;;;;3.93;3.53;;;9.60;99.90;;;;;;6138433;23;20456;-61
2023/09/27 06:37:19;;;;;;;3.40;3.00;;;9.50;99.90;;;;;;6131955;23;20497;-60
2023/09/27 06:39:46;;;;;;;17.40;4.90;;;9.60;99.90;;;;;;6132445;23;20832;-63
2023/09/27 06:42:13;;;;;;;4.80;3.63;;;9.70;99.90;;;;;;6136598;23;20449;-61
2023/09/27 06:44:41;;;;;;;5.20;4.70;;;9.90;99.90;;;;;;6137726;23;20454;-61
2023/09/27 06:47:07;;;;;;;19.83;4.37;;;10.10;99.90;;;;;;6137081;23;21166;-60
2023/09/27 06:49:36;;;;;;;5.70;3.97;;;10.70;99.90;;;;;;6137162;23;20446;-62
2023/09/27 06:52:03;;;;;;;6.13;4.03;;;11.70;99.90;;;;;;6136629;23;20443;-61
2023/09/27 06:54:30;;;;;;;11.37;5.40;;;12.90;99.90;;;;;;6137811;23;20446;-61
2023/09/27 06:56:56;;;;;;;7.00;5.50;;;14.20;99.20;;;;;;6137245;23;20449;-62
2023/09/27 06:59:23;;;;;;;6.37;5.40;;;15.80;96.80;;;;;;6137481;23;20506;-62
2023/09/27 07:01:50;;;;;;;11.50;6.00;;;16.70;93.90;;;;;;6138621;23;20935;-63
2023/09/27 07:04:17;;;;;;;4.73;3.90;;;17.80;93.50;;;;;;6135133;23;20453;-62
2023/09/27 07:06:45;;;;;;;4.53;4.13;;;18.50;91.70;;;;;;6134960;23;20438;-62
2023/09/27 07:09:16;;;;;;;4.37;3.20;;;19.30;91.70;;;;;;6135654;23;20852;-64
2023/09/27 07:11:44;;;;;;;3.30;3.00;;;20.20;91.10;;;;;;6138109;23;20537;-62
2023/09/27 07:14:12;;;;;;;7.13;4.07;;;20.90;89.20;;;;;;6136008;23;20498;-63
2023/09/27 07:16:39;;;;;;;3.53;2.80;;;21.20;88.40;;;;;;6138613;23;20450;-63
2023/09/27 07:19:06;;;;;;;2.70;2.50;;;22.20;88.80;;;;;;6138181;23;20453;-63
2023/09/27 07:21:34;;;;;;;2.60;2.30;;;22.70;85.90;;;;;;6140842;23;20549;-62
2023/09/27 07:24:03;;;;;;;3.80;3.50;;;23.00;84.30;;;;;;6137419;23;20530;-63
2023/09/27 07:26:30;;;;;;;4.33;3.00;;;23.20;84.60;;;;;;6114792;23;20527;-64
2023/09/27 07:28:57;;;;;;;3.20;2.90;;;23.50;84.00;;;;;;6106674;23;20548;-63
2023/09/27 07:31:26;;;;;;;3.10;2.43;;;;;;;;;;6135497;23;20452;-63
2023/09/27 07:33:55;;;;;;;6.13;3.50;;;24.30;83.60;;;;;;6140127;23;20466;-63
2023/09/27 07:36:24;;;;;;;2.63;2.43;;;24.60;84.60;;;;;;6140845;23;20935;-64
2023/09/27 07:38:52;;;;;;;6.10;3.10;;;24.90;85.30;;;;;;6140601;23;20438;-62
2023/09/27 07:41:20;;;;;;;4.70;2.90;;;25.00;84.80;;;;;;6140628;23;20445;-63
2023/09/27 07:43:47;;;;;;;7.83;3.17;;;25.20;83.10;;;;;;6136968;23;20442;-64
2023/09/27 07:46:17;;;;;;;3.57;3.27;;;25.20;82.90;;;;;;6095538;23;20458;-63
2023/09/27 07:48:44;;;;;;;8.47;3.97;;;25.10;83.00;;;;;;6138102;23;20446;-63
2023/09/27 07:51:11;;;;;;;3.50;2.97;;;25.00;84.00;;;;;;6139852;23;20438;-63
2023/09/27 07:53:38;;;;;;;3.33;3.03;;;24.90;84.80;;;;;;6139058;23;20915;-63
2023/09/27 07:56:09;;;;;;;6.00;3.50;;;24.70;85.20;;;;;;6139236;23;20635;-64
2023/09/27 07:58:41;;;;;;;14.07;4.20;;;24.50;85.10;;;;;;6115239;23;20771;-63
2023/09/27 08:01:08;;;;;;;3.63;3.33;;;24.40;85.50;;;;;;6119266;23;20450;-64
2023/09/27 08:03:35;;;;;;;5.33;3.43;;;24.20;87.30;;;;;;6139629;23;20448;-64
2023/09/27 08:06:04;;;;;;;7.00;3.37;;;24.10;87.10;;;;;;6138884;23;20545;-64
2023/09/27 08:08:31;;;;;;;6.20;3.83;;;;;;;;;;6139033;23;20854;-63
2023/09/27 08:11:00;;;;;;;4.50;3.40;;;23.80;89.10;;;;;;6139145;23;20446;-63
2023/09/27 08:13:30;;;;;;;3.67;3.20;;;23.60;89.70;;;;;;6138669;23;21157;-64
2023/09/27 08:15:59;;;;;;;12.50;4.30;;;23.50;89.60;;;;;;6137584;23;20446;-63
2023/09/27 08:18:26;;;;;;;6.03;3.27;;;23.40;90.20;;;;;;6137604;23;20520;-64
2023/09/27 08:20:54;;;;;;;4.73;3.60;;;23.30;90.40;;;;;;6138690;23;20434;-63
2023/09/27 08:23:22;;;;;;;8.70;3.40;;;23.20;91.00;;;;;;6131642;23;21009;-63
2023/09/27 08:25:49;;;;;;;3.07;2.77;;;23.20;90.90;;;;;;6117414;23;20447;-64
2023/09/27 08:28:16;;;;;;;10.40;4.07;;;23.10;91.20;;;;;;6116222;23;20941;-63
2023/09/27 08:30:43;;;;;;;8.33;3.80;;;23.10;91.40;;;;;;6137496;23;20513;-63
2023/09/27 08:33:11;;;;;;;3.80;2.90;;;23.20;91.10;;;;;;6137507;23;20448;-63
2023/09/27 08:35:38;;;;;;;4.63;3.63;;;23.20;91.40;;;;;;6138213;23;20459;-64
2023/09/27 08:38:05;;;;;;;21.23;4.57;;;23.20;91.80;;;;;;6138486;23;20438;-63
2023/09/27 08:40:32;;;;;;;3.83;3.40;;;23.20;91.80;;;;;;6133678;23;20452;-64
2023/09/27 08:43:01;;;;;;;3.90;3.07;;;23.40;92.20;;;;;;6139694;23;20435;-63
2023/09/27 08:45:29;;;;;;;3.33;3.03;;;23.50;92.20;;;;;;6139155;23;20434;-63
2023/09/27 08:47:56;;;;;;;3.80;3.17;;;23.70;92.10;;;;;;6137725;23;20764;-62
2023/09/27 08:50:28;;;;;;;9.90;4.63;;;23.90;92.60;;;;;;6117381;23;20559;-63
2023/09/27 08:52:55;;;;;;;3.37;3.07;;;24.00;92.60;;;;;;6116994;23;20446;-64
2023/09/27 08:55:21;;;;;;;5.80;3.57;;;24.20;92.60;;;;;;6138309;23;20431;-64
2023/09/27 08:57:51;;;;;;;6.77;3.80;;;24.40;93.00;;;;;;6135134;23;20420;-63
2023/09/27 09:00:21;;;;;;;32.37;4.47;;;24.60;92.70;;;;;;6138687;23;20442;-63
2023/09/27 09:02:52;;;;;;;5.20;4.37;;;24.60;93.00;;;;;;6138922;23;20822;-64
2023/09/27 09:05:19;;;;;;;6.60;4.43;;;24.40;92.30;;;;;;6136363;23;20663;-63
2023/09/27 09:07:48;;;;;;;10.50;4.50;;;24.60;92.80;;;;;;6137202;23;20745;-66
2023/09/27 09:10:15;;;;;;;4.90;4.47;;;24.60;92.30;;;;;;6138783;23;20417;-65
2023/09/27 09:12:43;;;;;;;5.43;4.77;;;24.40;92.00;;;;;;6138797;23;20473;-66
2023/09/27 09:15:14;;;;;;;9.47;4.50;;;24.20;91.10;;;;;;6118374;23;20442;-66
2023/09/27 09:17:47;;;;;;;4.87;4.37;;;23.90;92.40;;;;;;6109299;23;20454;-66
2023/09/27 09:20:23;;;;;;;8.70;4.60;;;23.90;91.60;;;;;;6139524;23;20943;-66
2023/09/27 09:22:54;;;;;;;4.90;4.27;;;23.90;92.00;;;;;;6137575;23;20642;-66
2023/09/27 09:25:22;;;;;;;11.07;4.40;;;24.20;93.10;;;;;;6138617;23;20457;-66
2023/09/27 09:28:07;;;;;;;11.20;4.37;;;24.60;93.30;;;;;;6137701;23;20436;-66
2023/09/27 09:30:36;;;;;;;11.70;7.77;;;24.70;92.00;;;;;;6139427;23;20436;-66
2023/09/27 09:33:03;;;;;;;7.80;4.63;;;24.80;91.80;;;;;;6112839;23;20439;-66
2023/09/27 09:35:31;;;;;;;5.43;4.00;;;25.00;92.00;;;;;;6135242;23;20444;-66
2023/09/27 09:38:02;;;;;;;4.90;4.13;;;25.20;92.20;;;;;;6134493;23;20610;-66
2023/09/27 09:40:31;;;;;;;4.70;4.30;;;25.10;90.50;;;;;;6139458;23;20434;-66
2023/09/27 09:42:59;;;;;;;6.77;5.00;;;24.90;90.70;;;;;;6138120;23;20466;-66
2023/09/27 09:45:28;;;;;;;22.13;5.40;;;24.90;90.80;;;;;;6135654;23;20902;-66
2023/09/27 09:47:56;;;;;;;4.70;4.23;;;25.00;91.50;;;;;;6098481;23;20486;-66
2023/09/27 09:50:23;;;;;;;8.70;4.27;;;25.10;91.60;;;;;;6136206;23;20446;-66
2023/09/27 09:52:57;;;;;;;9.00;4.97;;;25.30;90.40;;;;;;6138948;23;20447;-66
2023/09/27 09:55:27;;;;;;;4.27;3.87;;;25.40;91.00;;;;;;6118041;23;20827;-66
2023/09/27 09:57:59;;;;;;;6.63;4.50;;;25.50;91.00;;;;;;6113886;23;20487;-66
2023/09/27 10:00:27;;;;;;;14.13;4.40;;;25.50;89.00;;;;;;6111130;23;20529;-66
2023/09/27 10:03:00;;;;;;;7.50;4.13;;;25.50;91.00;;;;;;6138398;23;20946;-66
2023/09/27 10:05:35;;;;;;;4.20;3.73;;;25.50;91.30;;;;;;6129472;23;20443;-66
2023/09/27 10:08:02;;;;;;;3.53;3.03;;;25.70;89.10;;;;;;6138139;23;20456;-66
2023/09/27 10:10:32;;;;;;;3.37;3.10;;;25.90;90.60;;;;;;6139582;23;20869;-66
2023/09/27 10:13:00;;;;;;;13.80;4.33;;;26.20;90.60;;;;;;6138092;23;20453;-66
2023/09/27 10:15:28;;;;;;;3.83;3.43;;;26.40;92.40;;;;;;6138284;23;20453;-66
2023/09/27 10:18:22;;;;;;;8.63;4.13;;;26.40;87.70;;;;;;6096847;23;20935;-64
2023/09/27 10:21:03;;;;;;;5.03;3.30;;;26.20;84.20;;;;;;6076214;23;20427;-63
2023/09/27 10:23:35;;;;;;;3.80;3.00;;;26.50;89.90;;;;;;6123727;23;20882;-64
2023/09/27 10:26:23;;;;;;;3.50;3.20;;;26.60;87.80;;;;;;6138586;23;20524;-65
2023/09/27 10:29:10;;;;;;;8.43;3.60;;;26.50;86.90;;;;;;6097710;23;20996;-64
2023/09/27 10:31:38;;;;;;;6.70;3.40;;;26.60;89.90;;;;;;6135763;23;20865;-64
2023/09/27 10:34:28;;;;;;;7.03;3.37;;;;;;;;;;6136826;23;20442;-65
2023/09/27 10:36:55;;;;;;;6.90;3.23;;;27.00;88.10;;;;;;6122823;23;20766;-65
2023/09/27 10:39:22;;;;;;;5.57;3.40;;;27.20;89.90;;;;;;6136234;23;20960;-65
2023/09/27 10:41:53;;;;;;;3.60;3.30;;;27.20;84.00;;;;;;6130615;23;20421;-65
2023/09/27 10:44:30;;;;;;;3.10;2.77;;;27.40;87.60;;;;;;6139894;23;20513;-64
2023/09/27 10:46:58;;;;;;;4.40;3.60;;;27.30;86.00;;;;;;6120579;23;20448;-65
2023/09/27 10:49:26;;;;;;;3.80;3.40;;;;;;;;;;6137825;23;20417;-65
2023/09/27 10:51:53;;;;;;;4.50;3.70;;;27.40;87.10;;;;;;6139105;23;20441;-65
2023/09/27 10:54:23;;;;;;;25.43;3.80;;;27.50;85.50;;;;;;6139168;23;20409;-64
2023/09/27 10:56:55;;;;;;;3.57;3.10;;;27.40;83.50;;;;;;6138392;23;20426;-65
2023/09/27 10:59:26;;;;;;;3.80;2.90;;;27.30;82.90;;;;;;6138477;23;20405;-65
2023/09/27 11:01:53;;;;;;;7.73;3.17;;;26.80;82.10;;;;;;6101203;23;20965;-65
2023/09/27 11:04:24;;;;;;;3.60;2.97;;;26.50;83.20;;;;;;6140884;23;20440;-65
2023/09/27 11:06:52;;;;;;;3.03;2.73;;;26.20;84.60;;;;;;6137656;23;20520;-65
2023/09/27 11:10:15;;;;;;;3.47;3.17;;;25.90;84.50;;;;;;6136430;23;20417;-65
2023/09/27 11:13:39;;;;;;;4.97;3.40;;;25.50;86.10;;;;;;6120919;23;20540;-65
2023/09/27 11:17:03;;;;;;;6.80;3.40;;;25.50;86.40;;;;;;6126266;23;20448;-65
2023/09/27 11:20:27;;;;;;;4.87;2.47;;;25.90;87.80;;;;;;6137723;23;20510;-64
2023/09/27 11:23:50;;;;;;;6.67;2.87;;;26.00;82.40;;;;;;6097283;23;20409;-64
2023/09/27 11:26:19;;;;;;;3.47;2.30;;;26.00;83.80;;;;;;6133426;23;20530;-64
2023/09/27 11:28:47;;;;;;;16.63;3.23;;;26.60;89.00;;;;;;6135965;23;20442;-67
2023/09/27 11:31:22;;;;;;;3.27;2.90;;;26.50;84.70;;;;;;6135535;23;20421;-66
2023/09/27 11:33:49;;;;;;;2.70;2.50;;;26.50;82.50;;;;;;6131158;23;20986;-66
2023/09/27 11:36:16;;;;;;;6.57;3.30;;;26.70;86.60;;;;;;6133465;23;20536;-66
2023/09/27 11:38:49;;;;;;;11.83;3.30;;;27.00;85.90;;;;;;6136966;23;21213;-66
2023/09/27 11:41:16;;;;;;;3.13;2.83;;;26.90;80.60;;;;;;6109450;23;21159;-66
2023/09/27 11:43:45;;;;;;;4.07;2.43;;;27.20;82.90;;;;;;6081295;23;20426;-66
2023/09/27 11:46:12;;;;;;;3.30;3.00;;;27.50;84.40;;;;;;6120033;23;20429;-66
2023/09/27 11:48:39;;;;;;;3.73;3.07;;;27.10;78.40;;;;;;6103068;23;20814;-66
2023/09/27 11:51:06;;;;;;;2.80;2.47;;;27.20;81.90;;;;;;6123289;23;20822;-67
2023/09/27 11:53:33;;;;;;;5.43;2.97;;;27.10;81.50;;;;;;6132061;23;20452;-67
2023/09/27 11:56:01;;;;;;;2.70;2.50;;;27.30;83.20;;;;;;6135809;23;20613;-66
2023/09/27 11:58:28;;;;;;;7.40;3.37;;;27.00;79.70;;;;;;6134498;23;20586;-66
2023/09/27 12:00:56;;;;;;;2.43;2.23;;;27.20;82.10;;;;;;6135473;23;20417;-66
2023/09/27 12:03:23;;;;;;;8.97;2.77;;;27.10;81.10;;;;;;6136893;23;20483;-66
2023/09/27 12:05:50;;;;;;;2.83;2.53;;;27.10;79.70;;;;;;6100470;23;20432;-66
2023/09/27 12:08:17;;;;;;;6.30;3.07;;;27.30;80.50;;;;;;6123950;23;20421;-66
2023/09/27 12:10:44;;;;;;;6.63;2.97;;;27.30;79.00;;;;;;6109457;23;20414;-67
2023/09/27 12:13:11;;;;;;;10.47;2.50;;;27.40;81.50;;;;;;6119011;23;20483;-66
2023/09/27 12:15:38;;;;;;;3.00;2.60;;;27.50;81.30;;;;;;6135976;23;20421;-67
2023/09/27 12:18:07;;;;;;;7.23;2.87;;;27.70;80.10;;;;;;6133720;23;20480;-66
2023/09/27 12:20:38;;;;;;;2.93;2.73;;;27.60;78.40;;;;;;6134029;23;20435;-66
2023/09/27 12:23:05;;;;;;;4.47;3.63;;;27.70;78.60;;;;;;6133696;23;20901;-67
2023/09/27 12:25:33;;;;;;;3.23;2.93;;;27.60;79.70;;;;;;6135951;23;20565;-67
2023/09/27 12:28:00;;;;;;;3.70;2.50;;;27.90;82.90;;;;;;6133545;23;20427;-66
2023/09/27 12:30:28;;;;;;;2.63;2.30;;;28.20;80.10;;;;;;6135960;23;20417;-66
2023/09/27 12:32:55;;;;;;;7.63;2.60;;;28.40;79.30;;;;;;6135443;23;20768;-67
2023/09/27 12:35:23;;;;;;;3.00;2.70;;;28.70;80.60;;;;;;6137363;23;21071;-66
2023/09/27 12:37:50;;;;;;;6.30;2.67;;;28.80;77.50;;;;;;6132523;23;20446;-67
2023/09/27 12:40:17;;;;;;;3.53;2.40;;;28.60;76.80;;;;;;6089917;23;20428;-66
2023/09/27 12:42:44;;;;;;;3.73;2.53;;;28.70;80.90;;;;;;6099683;23;20446;-67
2023/09/27 12:45:11;;;;;;;5.13;2.70;;;29.10;80.20;;;;;;6135994;23;20637;-66
2023/09/27 12:47:38;;;;;;;3.20;2.90;;;29.30;79.70;;;;;;6135813;23;20699;-66
2023/09/27 12:50:06;;;;;;;4.50;2.63;;;29.50;79.60;;;;;;6134269;23;20450;-67
2023/09/27 12:52:34;;;;;;;2.90;2.37;;;29.30;77.80;;;;;;6134624;23;21073;-67
2023/09/27 12:55:01;;;;;;;4.13;2.60;;;29.50;78.70;;;;;;6132863;23;21175;-67
2023/09/27 12:57:28;;;;;;;2.67;2.30;;;29.70;80.70;;;;;;6127542;23;20442;-67